createdAt,value
2018-12-13T00:00:46.898Z,38.27
2018-12-13T00:01:46.902Z,37.99
2018-12-13T00:02:46.896Z,37.80
2018-12-13T00:03:46.898Z,37.61
2018-12-13T00:04:46.920Z,37.80
2018-12-13T00:05:46.908Z,38.65
2018-12-13T00:06:46.905Z,38.18
2018-12-13T00:07:46.905Z,37.71
2018-12-13T00:08:46.913Z,37.61
2018-12-13T00:09:46.911Z,36.38
2018-12-13T00:10:46.913Z,36.29
2018-12-13T00:11:46.912Z,36.74
2018-12-13T00:12:46.913Z,36.55
2018-12-13T00:13:46.915Z,37.05
2018-12-13T00:14:46.924Z,36.93
2018-12-13T00:15:46.918Z,37.02
2018-12-13T00:16:46.925Z,36.55
2018-12-13T00:17:46.925Z,36.65
2018-12-13T00:18:46.929Z,36.55
2018-12-13T00:19:46.928Z,36.36
2018-12-13T00:20:46.929Z,36.46
2018-12-13T00:21:46.929Z,36.74
2018-12-13T00:22:46.933Z,36.93
2018-12-13T00:23:46.929Z,37.50
2018-12-13T00:24:46.936Z,37.02
2018-12-13T00:25:46.934Z,36.55
2018-12-13T00:26:46.940Z,35.89
2018-12-13T00:27:46.940Z,35.24
2018-12-13T00:28:46.940Z,35.52
2018-12-13T00:29:46.945Z,35.61
2018-12-13T00:30:46.950Z,35.71
2018-12-13T00:31:46.943Z,36.27
2018-12-13T00:32:46.947Z,36.46
2018-12-13T00:33:46.949Z,36.55
2018-12-13T00:34:46.947Z,36.93
2018-12-13T00:35:46.956Z,37.02
2018-12-13T00:36:46.958Z,37.14
2018-12-13T00:37:46.953Z,37.40
2018-12-13T00:38:46.955Z,37.50
2018-12-13T00:39:46.959Z,37.78
2018-12-13T00:40:46.957Z,37.40
2018-12-13T00:41:46.970Z,37.31
2018-12-13T00:42:46.965Z,37.12
2018-12-13T00:43:46.963Z,36.84
2018-12-13T00:44:46.966Z,37.40
2018-12-13T00:45:46.966Z,37.59
2018-12-13T00:46:46.967Z,36.65
2018-12-13T00:47:46.971Z,36.08
2018-12-13T00:48:46.970Z,35.91
2018-12-13T00:49:46.974Z,35.89
2018-12-13T00:50:46.978Z,35.80
2018-12-13T00:51:46.975Z,35.89
2018-12-13T00:52:46.976Z,35.80
2018-12-13T00:53:46.977Z,35.33
2018-12-13T00:54:46.979Z,35.61
2018-12-13T00:55:46.980Z,35.61
2018-12-13T00:56:46.981Z,35.71
2018-12-13T00:57:46.985Z,35.52
2018-12-13T00:58:47.063Z,35.71
2018-12-13T00:59:46.993Z,35.42
2018-12-13T01:00:46.989Z,35.61
2018-12-13T01:01:46.992Z,35.61
2018-12-13T01:02:46.990Z,35.52
2018-12-13T01:03:46.992Z,35.42
2018-12-13T01:04:46.998Z,35.14
2018-12-13T01:05:46.998Z,34.67
2018-12-13T01:06:46.996Z,34.77
2018-12-13T01:07:47.003Z,34.11
2018-12-13T01:08:46.999Z,33.73
2018-12-13T01:09:47.000Z,34.30
2018-12-13T01:10:47.005Z,34.77
2018-12-13T01:11:47.009Z,34.48
2018-12-13T01:12:47.005Z,34.58
2018-12-13T01:13:47.004Z,35.05
2018-12-13T01:14:47.008Z,35.24
2018-12-13T01:15:47.007Z,35.33
2018-12-13T01:16:47.011Z,35.42
2018-12-13T01:17:47.016Z,35.42
2018-12-13T01:18:47.014Z,35.89
2018-12-13T01:19:47.013Z,36.08
2018-12-13T01:20:47.017Z,35.99
2018-12-13T01:21:47.019Z,35.71
2018-12-13T01:22:47.018Z,35.61
2018-12-13T01:23:47.021Z,35.71
2018-12-13T01:24:47.021Z,36.08
2018-12-13T01:25:47.024Z,35.80
2018-12-13T01:26:47.023Z,35.80
2018-12-13T01:27:47.028Z,35.52
2018-12-13T01:28:47.025Z,34.86
2018-12-13T01:29:47.027Z,34.48
2018-12-13T01:30:47.029Z,34.30
2018-12-13T01:31:47.031Z,34.30
2018-12-13T01:32:47.033Z,34.58
2018-12-13T01:33:47.041Z,33.73
2018-12-13T01:34:47.033Z,33.26
2018-12-13T01:35:47.036Z,33.54
2018-12-13T01:36:52.385Z,34.01
2018-12-13T01:37:47.038Z,34.30
2018-12-13T01:38:47.039Z,34.86
2018-12-13T01:39:47.042Z,35.52
2018-12-13T01:40:47.042Z,35.99
2018-12-13T01:41:47.046Z,35.71
2018-12-13T01:42:47.047Z,35.89
2018-12-13T01:43:47.048Z,36.65
2018-12-13T01:44:47.047Z,37.02
2018-12-13T01:45:47.051Z,37.40
2018-12-13T01:46:47.051Z,37.78
2018-12-13T01:47:47.051Z,37.40
2018-12-13T01:48:47.054Z,37.12
2018-12-13T01:49:47.055Z,37.12
2018-12-13T01:50:47.056Z,36.46
2018-12-13T01:51:47.054Z,37.02
2018-12-13T01:52:47.063Z,37.40
2018-12-13T01:53:47.061Z,37.87
2018-12-13T01:54:47.061Z,38.16
2018-12-13T01:55:47.061Z,38.06
2018-12-13T01:56:47.062Z,37.78
2018-12-13T01:57:47.074Z,37.97
2018-12-13T01:58:47.065Z,38.16
2018-12-13T01:59:47.067Z,38.82
2018-12-13T02:00:47.066Z,38.63
2018-12-13T02:01:47.071Z,39.01
2018-12-13T02:02:47.070Z,39.29
2018-12-13T02:03:47.073Z,40.04
2018-12-13T02:04:47.071Z,39.38
2018-12-13T02:05:47.074Z,39.01
2018-12-13T02:06:47.073Z,38.82
2018-12-13T02:07:47.078Z,37.69
2018-12-13T02:08:47.075Z,36.93
2018-12-13T02:09:47.082Z,35.80
2018-12-13T02:10:47.084Z,35.33
2018-12-13T02:11:47.081Z,34.86
2018-12-13T02:12:47.083Z,35.33
2018-12-13T02:13:47.087Z,35.14
2018-12-13T02:14:47.084Z,34.95
2018-12-13T02:15:47.085Z,34.86
2018-12-13T02:16:47.084Z,35.05
2018-12-13T02:17:47.086Z,35.33
2018-12-13T02:18:47.090Z,35.05
2018-12-13T02:19:47.091Z,35.61
2018-12-13T02:20:47.087Z,36.08
2018-12-13T02:21:47.091Z,35.99
2018-12-13T02:22:47.091Z,36.27
2018-12-13T02:23:47.093Z,36.65
2018-12-13T02:24:47.094Z,36.74
2018-12-13T02:25:47.095Z,36.55
2018-12-13T02:26:47.098Z,36.36
2018-12-13T02:27:47.099Z,36.65
2018-12-13T02:28:47.097Z,36.46
2018-12-13T02:29:47.098Z,36.55
2018-12-13T02:30:47.101Z,36.65
2018-12-13T02:31:47.103Z,36.27
2018-12-13T02:32:47.102Z,36.08
2018-12-13T02:33:47.103Z,35.89
2018-12-13T02:34:47.111Z,36.46
2018-12-13T02:35:47.107Z,36.55
2018-12-13T02:36:47.120Z,36.36
2018-12-13T02:37:47.107Z,36.27
2018-12-13T02:38:47.106Z,36.08
2018-12-13T02:39:47.108Z,36.08
2018-12-13T02:40:47.113Z,35.61
2018-12-13T02:41:47.111Z,35.42
2018-12-13T02:42:47.120Z,35.42
2018-12-13T02:43:47.111Z,35.52
2018-12-13T02:44:47.119Z,35.52
2018-12-13T02:45:47.113Z,35.89
2018-12-13T02:46:47.179Z,36.08
2018-12-13T02:47:47.117Z,35.89
2018-12-13T02:48:47.116Z,35.89
2018-12-13T02:49:47.120Z,35.71
2018-12-13T02:50:47.118Z,35.80
2018-12-13T02:51:47.119Z,36.27
2018-12-13T02:52:47.120Z,35.99
2018-12-13T02:53:47.122Z,36.55
2018-12-13T02:54:47.121Z,36.36
2018-12-13T02:55:47.123Z,36.93
2018-12-13T02:56:47.123Z,37.59
2018-12-13T02:57:47.131Z,37.31
2018-12-13T02:58:47.127Z,37.50
2018-12-13T02:59:47.131Z,37.59
2018-12-13T03:00:47.128Z,38.06
2018-12-13T03:01:47.129Z,38.63
2018-12-13T03:02:47.225Z,38.25
2018-12-13T03:03:47.130Z,38.63
2018-12-13T03:04:47.131Z,37.78
2018-12-13T03:05:47.134Z,37.31
2018-12-13T03:06:47.136Z,36.55
2018-12-13T03:07:47.135Z,36.55
2018-12-13T03:08:47.138Z,36.18
2018-12-13T03:09:47.136Z,35.99
2018-12-13T03:10:47.137Z,35.99
2018-12-13T03:11:47.140Z,35.80
2018-12-13T03:12:47.141Z,35.99
2018-12-13T03:13:47.144Z,36.46
2018-12-13T03:14:47.141Z,37.87
2018-12-13T03:15:47.141Z,37.69
2018-12-13T03:16:47.143Z,38.16
2018-12-13T03:17:47.144Z,38.82
2018-12-13T03:18:47.153Z,38.53
2018-12-13T03:19:47.148Z,38.63
2018-12-13T03:20:47.148Z,38.72
2018-12-13T03:21:47.159Z,38.72
2018-12-13T03:22:47.148Z,39.01
2018-12-13T03:23:47.158Z,38.82
2018-12-13T03:24:47.153Z,39.10
2018-12-13T03:25:47.150Z,38.91
2018-12-13T03:26:47.152Z,39.01
2018-12-13T03:27:47.154Z,39.10
2018-12-13T03:28:47.152Z,39.01
2018-12-13T03:29:47.155Z,39.57
2018-12-13T03:30:47.159Z,40.14
2018-12-13T03:31:47.169Z,40.23
2018-12-13T03:32:47.166Z,39.86
2018-12-13T03:33:47.159Z,40.14
2018-12-13T03:34:47.159Z,39.76
2018-12-13T03:35:47.157Z,40.14
2018-12-13T03:36:47.163Z,40.14
2018-12-13T03:37:47.158Z,40.33
2018-12-13T03:38:47.160Z,40.52
2018-12-13T03:39:47.164Z,39.95
2018-12-13T03:40:47.162Z,40.04
2018-12-13T03:41:47.168Z,39.48
2018-12-13T03:42:47.263Z,39.76
2018-12-13T03:43:47.178Z,39.48
2018-12-13T03:44:47.168Z,39.95
2018-12-13T03:45:47.167Z,40.33
2018-12-13T03:46:47.167Z,40.33
2018-12-13T03:47:47.166Z,40.04
2018-12-13T03:48:47.171Z,40.14
2018-12-13T03:49:47.177Z,40.23
2018-12-13T03:50:47.170Z,40.04
2018-12-13T03:51:47.173Z,40.23
2018-12-13T03:52:47.171Z,40.14
2018-12-13T03:53:47.174Z,40.42
2018-12-13T03:54:47.175Z,40.23
2018-12-13T03:55:47.173Z,39.76
2018-12-13T03:56:47.174Z,39.29
2018-12-13T03:57:47.175Z,39.10
2018-12-13T03:58:47.180Z,38.91
2018-12-13T03:59:47.179Z,38.72
2018-12-13T04:00:47.178Z,39.01
2018-12-13T04:01:47.179Z,39.01
2018-12-13T04:02:47.180Z,39.38
2018-12-13T04:03:47.197Z,39.38
2018-12-13T04:04:47.179Z,40.04
2018-12-13T04:05:47.189Z,39.48
2018-12-13T04:06:47.181Z,40.23
2018-12-13T04:07:47.184Z,39.95
2018-12-13T04:08:47.186Z,40.23
2018-12-13T04:09:47.251Z,40.61
2018-12-13T04:10:47.188Z,40.61
2018-12-13T04:11:47.186Z,40.23
2018-12-13T04:12:47.193Z,40.23
2018-12-13T04:13:47.193Z,40.14
2018-12-13T04:14:47.186Z,40.14
2018-12-13T04:15:47.187Z,40.04
2018-12-13T04:16:47.190Z,39.57
2018-12-13T04:17:47.200Z,39.67
2018-12-13T04:18:47.193Z,39.95
2018-12-13T04:19:47.194Z,39.38
2018-12-13T04:20:47.190Z,39.57
2018-12-13T04:21:47.191Z,39.76
2018-12-13T04:22:47.193Z,40.23
2018-12-13T04:23:47.191Z,39.95
2018-12-13T04:24:47.197Z,39.86
2018-12-13T04:25:47.197Z,40.33
2018-12-13T04:26:47.196Z,39.86
2018-12-13T04:27:47.195Z,39.48
2018-12-13T04:28:47.196Z,39.95
2018-12-13T04:29:47.196Z,39.29
2018-12-13T04:30:47.203Z,39.10
2018-12-13T04:31:47.195Z,39.01
2018-12-13T04:32:47.196Z,39.01
2018-12-13T04:33:47.200Z,38.63
2018-12-13T04:34:47.204Z,38.63
2018-12-13T04:35:47.207Z,39.01
2018-12-13T04:36:47.211Z,39.10
2018-12-13T04:37:47.200Z,39.38
2018-12-13T04:38:47.202Z,39.38
2018-12-13T04:39:47.204Z,39.10
2018-12-13T04:40:47.204Z,38.72
2018-12-13T04:41:47.212Z,37.59
2018-12-13T04:42:47.204Z,37.69
2018-12-13T04:43:47.204Z,37.02
2018-12-13T04:44:47.205Z,37.50
2018-12-13T04:45:47.207Z,38.06
2018-12-13T04:46:47.205Z,38.91
2018-12-13T04:47:47.213Z,38.72
2018-12-13T04:48:47.211Z,38.72
2018-12-13T04:49:47.207Z,38.72
2018-12-13T04:50:47.208Z,38.72
2018-12-13T04:51:47.212Z,38.63
2018-12-13T04:52:47.209Z,38.35
2018-12-13T04:53:47.208Z,38.16
2018-12-13T04:54:47.211Z,37.50
2018-12-13T04:55:47.210Z,37.59
2018-12-13T04:56:47.215Z,37.69
2018-12-13T04:57:47.213Z,37.50
2018-12-13T04:58:47.218Z,37.59
2018-12-13T04:59:47.215Z,38.06
2018-12-13T05:00:47.214Z,38.16
2018-12-13T05:01:47.213Z,38.35
2018-12-13T05:02:47.214Z,38.06
2018-12-13T05:03:47.217Z,38.35
2018-12-13T05:04:47.216Z,38.25
2018-12-13T05:05:47.217Z,38.82
2018-12-13T05:06:47.917Z,38.63
2018-12-13T05:07:47.222Z,38.72
2018-12-13T05:08:47.223Z,39.01
2018-12-13T05:09:47.225Z,39.10
2018-12-13T05:10:47.223Z,39.10
2018-12-13T05:11:47.219Z,38.63
2018-12-13T05:12:47.221Z,38.91
2018-12-13T05:13:47.221Z,39.01
2018-12-13T05:14:47.225Z,38.63
2018-12-13T05:15:47.222Z,38.82
2018-12-13T05:16:47.223Z,38.16
2018-12-13T05:17:47.228Z,38.16
2018-12-13T05:18:47.224Z,38.16
2018-12-13T05:19:47.224Z,37.97
2018-12-13T05:20:47.224Z,37.97
2018-12-13T05:21:47.225Z,37.87
2018-12-13T05:22:47.226Z,38.25
2018-12-13T05:23:47.227Z,38.63
2018-12-13T05:24:47.227Z,38.44
2018-12-13T05:25:47.226Z,39.10
2018-12-13T05:26:47.240Z,39.38
2018-12-13T05:27:47.227Z,39.20
2018-12-13T05:28:47.228Z,38.91
2018-12-13T05:29:47.229Z,39.10
2018-12-13T05:30:47.231Z,38.91
2018-12-13T05:31:47.231Z,38.91
2018-12-13T05:32:47.229Z,38.53
2018-12-13T05:33:47.234Z,38.35
2018-12-13T05:34:47.236Z,37.87
2018-12-13T05:35:47.230Z,38.16
2018-12-13T05:36:47.231Z,38.63
2018-12-13T05:37:48.327Z,38.06
2018-12-13T05:38:47.234Z,38.16
2018-12-13T05:39:47.235Z,38.63
2018-12-13T05:40:47.235Z,38.91
2018-12-13T05:41:47.234Z,39.01
2018-12-13T05:42:47.236Z,38.91
2018-12-13T05:43:47.235Z,38.72
2018-12-13T05:44:47.237Z,38.16
2018-12-13T05:45:47.235Z,37.59
2018-12-13T05:46:47.238Z,37.87
2018-12-13T05:47:47.236Z,37.78
2018-12-13T05:48:47.237Z,37.69
2018-12-13T05:49:47.237Z,37.69
2018-12-13T05:50:47.237Z,37.78
2018-12-13T05:51:47.237Z,37.78
2018-12-13T05:52:47.237Z,37.78
2018-12-13T05:53:47.243Z,37.69
2018-12-13T05:54:47.243Z,37.97
2018-12-13T05:55:47.251Z,38.06
2018-12-13T05:56:47.239Z,38.25
2018-12-13T05:57:47.241Z,38.82
2018-12-13T05:58:47.244Z,38.72
2018-12-13T05:59:47.238Z,39.20
2018-12-13T06:00:47.241Z,39.48
2018-12-13T06:01:47.245Z,39.29
2018-12-13T06:02:47.239Z,39.76
2018-12-13T06:03:47.255Z,39.95
2018-12-13T06:04:47.241Z,40.14
2018-12-13T06:05:47.242Z,40.14
2018-12-13T06:06:47.946Z,39.76
2018-12-13T06:07:47.241Z,39.67
2018-12-13T06:08:47.244Z,40.04
2018-12-13T06:09:47.241Z,39.67
2018-12-13T06:10:47.241Z,39.76
2018-12-13T06:11:47.241Z,40.23
2018-12-13T06:12:47.241Z,40.14
2018-12-13T06:13:47.244Z,40.52
2018-12-13T06:14:47.245Z,40.14
2018-12-13T06:15:47.241Z,40.04
2018-12-13T06:16:47.243Z,40.33
2018-12-13T06:17:47.242Z,40.52
2018-12-13T06:18:47.242Z,40.52
2018-12-13T06:19:47.241Z,40.14
2018-12-13T06:20:47.243Z,40.33
2018-12-13T06:21:47.241Z,40.14
2018-12-13T06:22:47.242Z,40.23
2018-12-13T06:23:47.242Z,40.42
2018-12-13T06:24:47.241Z,40.89
2018-12-13T06:25:47.243Z,41.64
2018-12-13T06:26:47.245Z,41.55
2018-12-13T06:27:47.245Z,41.64
2018-12-13T06:28:47.242Z,41.83
2018-12-13T06:29:48.975Z,41.46
2018-12-13T06:30:47.243Z,41.46
2018-12-13T06:31:47.245Z,41.55
2018-12-13T06:32:47.244Z,41.64
2018-12-13T06:33:47.248Z,42.21
2018-12-13T06:34:47.246Z,42.30
2018-12-13T06:35:47.244Z,41.83
2018-12-13T06:36:47.243Z,41.64
2018-12-13T06:37:47.243Z,41.55
2018-12-13T06:38:47.247Z,41.17
2018-12-13T06:39:47.244Z,41.17
2018-12-13T06:40:47.243Z,40.89
2018-12-13T06:41:47.244Z,41.08
2018-12-13T06:42:47.247Z,41.17
2018-12-13T06:43:47.243Z,40.80
2018-12-13T06:44:47.242Z,40.42
2018-12-13T06:45:47.247Z,40.33
2018-12-13T06:46:47.244Z,39.01
2018-12-13T06:47:47.243Z,38.72
2018-12-13T06:48:47.247Z,38.63
2018-12-13T06:49:47.245Z,38.06
2018-12-13T06:50:47.245Z,37.59
2018-12-13T06:51:47.246Z,37.50
2018-12-13T06:52:47.245Z,37.59
2018-12-13T06:53:47.246Z,37.59
2018-12-13T06:54:47.244Z,38.06
2018-12-13T06:55:47.242Z,38.82
2018-12-13T06:56:47.247Z,38.72
2018-12-13T06:57:47.248Z,38.25
2018-12-13T06:58:47.244Z,38.72
2018-12-13T06:59:47.247Z,38.82
2018-12-13T07:00:47.248Z,39.10
2018-12-13T07:01:47.245Z,39.10
2018-12-13T07:02:47.245Z,39.38
2018-12-13T07:03:47.247Z,39.48
2018-12-13T07:04:47.253Z,40.33
2018-12-13T07:05:47.245Z,40.23
2018-12-13T07:06:47.243Z,40.23
2018-12-13T07:07:47.247Z,40.99
2018-12-13T07:08:47.245Z,41.17
2018-12-13T07:09:47.247Z,41.46
2018-12-13T07:10:47.246Z,41.46
2018-12-13T07:11:47.246Z,41.17
2018-12-13T07:12:47.249Z,41.55
2018-12-13T07:13:47.247Z,41.36
2018-12-13T07:14:47.246Z,41.55
2018-12-13T07:15:47.245Z,41.46
2018-12-13T07:16:47.246Z,41.55
2018-12-13T07:17:47.245Z,41.36
2018-12-13T07:18:47.248Z,40.89
2018-12-13T07:19:47.247Z,41.46
2018-12-13T07:20:47.252Z,41.64
2018-12-13T07:21:47.248Z,41.83
2018-12-13T07:22:47.249Z,41.83
2018-12-13T07:23:47.248Z,41.83
2018-12-13T07:24:47.249Z,41.74
2018-12-13T07:25:47.248Z,42.11
2018-12-13T07:26:47.247Z,41.83
2018-12-13T07:27:47.254Z,41.55
2018-12-13T07:28:47.250Z,41.27
2018-12-13T07:29:47.253Z,41.08
2018-12-13T07:30:47.252Z,40.89
2018-12-13T07:31:47.249Z,40.89
2018-12-13T07:32:47.255Z,41.36
2018-12-13T07:33:47.250Z,41.36
2018-12-13T07:34:47.253Z,41.46
2018-12-13T07:35:47.254Z,41.17
2018-12-13T07:36:47.254Z,41.46
2018-12-13T07:37:47.253Z,39.95
2018-12-13T07:38:47.251Z,38.91
2018-12-13T07:39:47.252Z,38.06
2018-12-13T07:40:47.252Z,37.87
2018-12-13T07:41:47.251Z,37.59
2018-12-13T07:42:47.251Z,37.87
2018-12-13T07:43:47.254Z,37.87
2018-12-13T07:44:47.251Z,37.97
2018-12-13T07:45:47.257Z,37.59
2018-12-13T07:46:47.257Z,37.59
2018-12-13T07:47:47.261Z,37.78
2018-12-13T07:48:47.253Z,37.12
2018-12-13T07:49:47.255Z,36.36
2018-12-13T07:50:47.258Z,36.36
2018-12-13T07:51:47.254Z,35.89
2018-12-13T07:52:47.253Z,35.99
2018-12-13T07:53:47.259Z,35.24
2018-12-13T07:54:47.262Z,34.95
2018-12-13T07:55:47.256Z,34.95
2018-12-13T07:56:47.256Z,35.24
2018-12-13T07:57:47.255Z,35.61
2018-12-13T07:58:47.255Z,35.52
2018-12-13T07:59:47.257Z,35.33
2018-12-13T08:00:47.256Z,35.33
2018-12-13T08:01:47.260Z,35.05
2018-12-13T08:02:47.261Z,35.24
2018-12-13T08:03:47.258Z,35.14
2018-12-13T08:04:47.259Z,35.52
2018-12-13T08:05:47.259Z,35.42
2018-12-13T08:06:47.261Z,35.71
2018-12-13T08:07:47.261Z,36.08
2018-12-13T08:08:47.260Z,36.36
2018-12-13T08:09:47.260Z,36.55
2018-12-13T08:10:47.260Z,36.65
2018-12-13T08:11:47.263Z,35.71
2018-12-13T08:12:47.261Z,35.99
2018-12-13T08:13:47.264Z,35.99
2018-12-13T08:14:47.263Z,35.71
2018-12-13T08:15:47.264Z,36.27
2018-12-13T08:16:47.266Z,36.55
2018-12-13T08:17:47.267Z,36.74
2018-12-13T08:18:47.264Z,36.74
2018-12-13T08:19:47.265Z,36.55
2018-12-13T08:20:47.267Z,36.55
2018-12-13T08:21:47.266Z,36.27
2018-12-13T08:22:47.268Z,36.08
2018-12-13T08:23:47.269Z,36.08
2018-12-13T08:24:47.266Z,35.99
2018-12-13T08:25:47.270Z,35.71
2018-12-13T08:26:47.268Z,35.89
2018-12-13T08:27:47.267Z,35.80
2018-12-13T08:28:47.269Z,36.18
2018-12-13T08:29:47.270Z,35.61
2018-12-13T08:30:47.271Z,35.61
2018-12-13T08:31:47.270Z,35.99
2018-12-13T08:32:47.271Z,36.08
2018-12-13T08:33:47.273Z,36.08
2018-12-13T08:34:47.272Z,36.08
2018-12-13T08:35:47.273Z,35.14
2018-12-13T08:36:47.283Z,34.30
2018-12-13T08:37:47.275Z,33.37
2018-12-13T08:38:47.274Z,33.18
2018-12-13T08:39:47.276Z,33.37
2018-12-13T08:40:47.275Z,33.37
2018-12-13T08:41:47.280Z,34.03
2018-12-13T08:42:47.281Z,33.84
2018-12-13T08:43:47.280Z,34.41
2018-12-13T08:44:47.283Z,34.42
2018-12-13T08:45:47.285Z,34.70
2018-12-13T08:46:47.288Z,34.52
2018-12-13T08:47:47.293Z,34.99
2018-12-13T08:48:47.290Z,34.14
2018-12-13T08:49:47.297Z,33.67
2018-12-13T08:50:47.339Z,33.58
2018-12-13T08:51:47.303Z,33.01
2018-12-13T08:52:47.302Z,33.67
2018-12-13T08:53:47.308Z,34.05
2018-12-13T08:54:47.315Z,32.92
2018-12-13T08:55:47.310Z,32.74
2018-12-13T08:56:47.315Z,32.46
2018-12-13T08:57:47.316Z,32.08
2018-12-13T08:58:47.320Z,31.42
2018-12-13T08:59:47.323Z,31.80
2018-12-13T09:00:47.330Z,31.81
2018-12-13T09:01:47.331Z,30.49
2018-12-13T09:02:47.333Z,29.93
2018-12-13T09:03:47.337Z,28.31
2018-12-13T09:04:47.340Z,28.59
2018-12-13T09:05:47.352Z,27.46
2018-12-13T09:06:47.348Z,27.08
2018-12-13T09:07:47.353Z,27.36
2018-12-13T09:08:47.356Z,28.50
2018-12-13T09:09:47.360Z,29.06
2018-12-13T09:10:47.364Z,28.78
2018-12-13T09:11:47.366Z,28.69
2018-12-13T09:12:47.371Z,27.46
2018-12-13T09:13:47.373Z,26.98
2018-12-13T09:14:47.378Z,27.63
2018-12-13T09:15:47.384Z,27.73
2018-12-13T09:16:47.388Z,27.74
2018-12-13T09:17:47.393Z,27.74
2018-12-13T09:18:47.395Z,28.69
2018-12-13T09:19:47.402Z,29.06
2018-12-13T09:20:47.402Z,27.93
2018-12-13T09:21:47.406Z,27.27
2018-12-13T09:22:47.415Z,27.17
2018-12-13T09:23:47.418Z,27.36
2018-12-13T09:24:47.415Z,26.98
2018-12-13T09:25:47.419Z,27.93
2018-12-13T09:26:47.431Z,27.93
2018-12-13T09:27:47.429Z,28.69
2018-12-13T09:28:47.436Z,28.59
2018-12-13T09:29:47.464Z,28.40
2018-12-13T09:30:47.443Z,29.53
2018-12-13T09:31:47.442Z,27.83
2018-12-13T09:32:47.444Z,27.83
2018-12-13T09:33:47.450Z,28.69
2018-12-13T09:34:47.454Z,29.72
2018-12-13T09:35:47.457Z,30.10
2018-12-13T09:36:47.463Z,27.83
2018-12-13T09:37:47.890Z,28.59
2018-12-13T09:38:47.468Z,28.69
2018-12-13T09:39:47.476Z,28.40
2018-12-13T09:40:47.476Z,27.46
2018-12-13T09:41:47.482Z,28.21
2018-12-13T09:42:47.485Z,27.46
2018-12-13T09:43:47.485Z,28.69
2018-12-13T09:44:47.491Z,29.25
2018-12-13T09:45:47.501Z,29.06
2018-12-13T09:46:47.505Z,29.06
2018-12-13T09:47:47.503Z,30.68
2018-12-13T09:48:47.511Z,31.53
2018-12-13T09:49:47.512Z,30.40
2018-12-13T09:50:47.517Z,30.49
2018-12-13T09:51:47.519Z,31.25
2018-12-13T09:52:47.526Z,32.12
2018-12-13T09:53:47.529Z,30.40
2018-12-13T09:54:47.533Z,28.32
2018-12-13T09:55:47.534Z,28.79
2018-12-13T09:56:47.540Z,28.61
2018-12-13T09:57:47.545Z,27.47
2018-12-13T09:58:47.550Z,27.47
2018-12-13T09:59:47.558Z,28.33
2018-12-13T10:00:47.565Z,28.62
2018-12-13T10:01:47.568Z,28.43
2018-12-13T10:02:47.570Z,27.58
2018-12-13T10:03:47.573Z,27.39
2018-12-13T10:04:47.577Z,26.81
2018-12-13T10:05:47.583Z,28.71
2018-12-13T10:06:47.589Z,30.60
2018-12-13T10:07:47.593Z,31.45
2018-12-13T10:08:47.601Z,31.07
2018-12-13T10:09:47.608Z,29.19
2018-12-13T10:10:47.610Z,27.09
2018-12-13T10:11:47.615Z,27.09
2018-12-13T10:12:47.623Z,27.47
2018-12-13T10:13:47.625Z,28.33
2018-12-13T10:14:47.636Z,27.58
2018-12-13T10:15:47.638Z,27.11
2018-12-13T10:16:47.643Z,25.98
2018-12-13T10:17:47.650Z,25.40
2018-12-13T10:18:47.654Z,25.30
2018-12-13T10:19:47.658Z,25.77
2018-12-13T10:20:47.664Z,27.19
2018-12-13T10:21:47.670Z,27.39
2018-12-13T10:22:47.678Z,27.86
2018-12-13T10:23:47.683Z,27.28
2018-12-13T10:24:47.691Z,27.56
2018-12-13T10:25:47.693Z,28.33
2018-12-13T10:26:47.699Z,30.13
2018-12-13T10:27:47.705Z,30.69
2018-12-13T10:28:47.709Z,29.75
2018-12-13T10:29:47.727Z,30.51
2018-12-13T10:30:47.723Z,30.13
2018-12-13T10:31:47.732Z,29.74
2018-12-13T10:32:47.733Z,28.61
2018-12-13T10:33:47.742Z,29.38
2018-12-13T10:34:47.748Z,29.00
2018-12-13T10:35:47.751Z,29.00
2018-12-13T10:36:47.758Z,28.33
2018-12-13T10:37:47.764Z,27.58
2018-12-13T10:38:53.005Z,26.07
2018-12-13T10:39:47.776Z,25.50
2018-12-13T10:40:47.782Z,27.48
2018-12-13T10:41:47.787Z,29.47
2018-12-13T10:42:47.793Z,29.46
2018-12-13T10:43:47.800Z,28.89
2018-12-13T10:44:47.811Z,29.28
2018-12-13T10:45:47.817Z,29.57
2018-12-13T10:46:47.820Z,28.24
2018-12-13T10:47:47.823Z,29.47
2018-12-13T10:48:47.830Z,30.41
2018-12-13T10:49:47.837Z,30.69
2018-12-13T10:50:47.842Z,31.09
2018-12-13T10:51:47.850Z,31.56
2018-12-13T10:52:47.856Z,32.32
2018-12-13T10:53:47.863Z,34.49
2018-12-13T10:54:47.871Z,34.11
2018-12-13T10:55:47.878Z,32.78
2018-12-13T10:56:47.883Z,33.44
2018-12-13T10:57:47.892Z,34.38
2018-12-13T10:58:47.900Z,35.33
2018-12-13T10:59:47.903Z,32.30
2018-12-13T11:00:47.910Z,33.45
2018-12-13T11:01:47.923Z,32.98
2018-12-13T11:02:47.924Z,32.23
2018-12-13T11:03:47.931Z,31.17
2018-12-13T11:04:47.935Z,30.41
2018-12-13T11:05:47.944Z,30.04
2018-12-13T11:06:47.949Z,30.60
2018-12-13T11:07:47.956Z,31.93
2018-12-13T11:08:47.962Z,32.87
2018-12-13T11:09:47.980Z,33.53
2018-12-13T11:10:48.054Z,32.32
2018-12-13T11:11:47.985Z,31.17
2018-12-13T11:12:47.992Z,30.98
2018-12-13T11:13:48.000Z,32.29
2018-12-13T11:14:48.005Z,35.71
2018-12-13T11:15:48.011Z,35.53
2018-12-13T11:16:48.018Z,33.73
2018-12-13T11:17:48.025Z,32.70
2018-12-13T11:18:48.032Z,29.96
2018-12-13T11:19:48.043Z,31.94
2018-12-13T11:20:48.052Z,32.70
2018-12-13T11:21:48.055Z,32.98
2018-12-13T11:22:48.061Z,33.07
2018-12-13T11:23:48.069Z,33.34
2018-12-13T11:24:48.074Z,33.53
2018-12-13T11:25:48.081Z,34.78
2018-12-13T11:26:48.090Z,33.83
2018-12-13T11:27:48.096Z,32.15
2018-12-13T11:28:48.101Z,31.85
2018-12-13T11:29:48.109Z,31.93
2018-12-13T11:30:48.124Z,32.68
2018-12-13T11:31:48.123Z,32.68
2018-12-13T11:32:48.131Z,33.83
2018-12-13T11:33:48.140Z,35.06
2018-12-13T11:34:48.147Z,35.53
2018-12-13T11:35:48.152Z,35.53
2018-12-13T11:36:48.162Z,35.63
2018-12-13T11:37:48.169Z,35.63
2018-12-13T11:38:48.175Z,35.35
2018-12-13T11:39:48.182Z,34.38
2018-12-13T11:40:48.192Z,33.44
2018-12-13T11:41:48.199Z,34.78
2018-12-13T11:42:48.205Z,36.19
2018-12-13T11:43:48.213Z,37.14
2018-12-13T11:44:48.224Z,37.52
2018-12-13T11:45:48.231Z,36.29
2018-12-13T11:46:48.236Z,37.33
2018-12-13T11:47:48.246Z,36.95
2018-12-13T11:48:48.253Z,36.74
2018-12-13T11:49:48.257Z,36.29
2018-12-13T11:50:48.268Z,36.95
2018-12-13T11:51:48.273Z,39.14
2018-12-13T11:52:48.284Z,40.19
2018-12-13T11:53:48.290Z,39.45
2018-12-13T11:54:48.300Z,35.57
2018-12-13T11:55:48.304Z,33.66
2018-12-13T11:56:48.311Z,34.04
2018-12-13T11:57:48.323Z,35.47
2018-12-13T11:58:48.332Z,34.91
2018-12-13T11:59:48.335Z,34.81
2018-12-13T12:00:48.348Z,32.81
2018-12-13T12:01:48.358Z,32.26
2018-12-13T12:02:48.362Z,32.05
2018-12-13T12:03:48.366Z,30.43
2018-12-13T12:04:48.376Z,31.09
2018-12-13T12:05:48.387Z,33.73
2018-12-13T12:06:48.398Z,33.15
2018-12-13T12:07:48.402Z,33.34
2018-12-13T12:08:48.410Z,34.97
2018-12-13T12:09:48.425Z,35.53
2018-12-13T12:10:48.427Z,36.76
2018-12-13T12:11:48.436Z,36.38
2018-12-13T12:12:48.443Z,36.31
2018-12-13T12:13:48.457Z,35.27
2018-12-13T12:14:48.460Z,34.70
2018-12-13T12:15:48.468Z,35.36
2018-12-13T12:16:48.476Z,34.30
2018-12-13T12:17:48.485Z,34.32
2018-12-13T12:18:48.492Z,34.68
2018-12-13T12:19:48.500Z,34.78
2018-12-13T12:20:48.512Z,35.25
2018-12-13T12:21:48.519Z,33.81
2018-12-13T12:22:48.525Z,34.68
2018-12-13T12:23:48.534Z,34.78
2018-12-13T12:24:48.541Z,34.59
2018-12-13T12:25:48.551Z,36.00
2018-12-13T12:26:48.562Z,38.01
2018-12-13T12:27:48.583Z,38.29
2018-12-13T12:28:48.580Z,37.04
2018-12-13T12:29:48.585Z,37.52
2018-12-13T12:30:48.594Z,39.50
2018-12-13T12:31:48.613Z,40.07
2018-12-13T12:32:48.610Z,40.16
2018-12-13T12:33:48.621Z,39.97
2018-12-13T12:34:48.632Z,38.28
2018-12-13T12:35:48.637Z,37.92
2018-12-13T12:36:48.649Z,36.59
2018-12-13T12:37:48.654Z,37.73
2018-12-13T12:38:48.663Z,35.57
2018-12-13T12:39:48.668Z,33.11
2018-12-13T12:40:48.679Z,33.03
2018-12-13T12:41:48.689Z,31.04
2018-12-13T12:42:48.703Z,31.99
2018-12-13T12:43:48.704Z,31.60
2018-12-13T12:44:48.711Z,30.73
2018-12-13T12:45:48.723Z,33.09
2018-12-13T12:46:48.733Z,33.94
2018-12-13T12:47:48.737Z,35.83
2018-12-13T12:48:48.752Z,37.52
2018-12-13T12:49:48.758Z,37.63
2018-12-13T12:50:48.769Z,37.63
2018-12-13T12:51:48.778Z,38.22
2018-12-13T12:52:48.785Z,38.88